Time;durP1;ratioP1;P1;durP2;ratioP2;P2;SDS_P1;SDS_P2;PMS_P1;PMS_P2;Temp;Humidity;BMP_temperature;BMP_pressure;BME280_temperature;BME280_humidity;BME280_pressure;Samples;Min_cycle;Max_cycle;Signal;HPM_P1;HPM_P2
2023/03/19 00:00:55;;;;;;;23.48;21.15;;;;;;;8.87;100.00;162884.78;5069167;28;20044;-63
2023/03/19 00:03:20;;;;;;;28.00;20.00;;;;;;;8.93;100.00;162898.25;5071473;28;20025;-63
2023/03/19 00:05:52;;;;;;;24.73;18.92;;;;;;;8.98;100.00;162911.72;5069791;28;20037;-63
2023/03/19 00:08:18;;;;;;;21.38;16.17;;;;;;;9.11;100.00;162946.81;5070702;28;20483;-63
2023/03/19 00:10:43;;;;;;;17.63;13.90;;;;;;;9.20;100.00;162971.03;5069626;28;20028;-62
2023/03/19 00:13:09;;;;;;;16.65;13.75;;;;;;;9.26;100.00;162984.56;5071024;28;20024;-62
2023/03/19 00:15:35;;;;;;;13.57;12.18;;;;;;;9.28;100.00;162989.91;5069582;28;20040;-63
2023/03/19 00:18:00;;;;;;;25.25;10.88;;;;;;;9.35;100.00;163008.81;5070451;28;20055;-63
2023/03/19 00:20:26;;;;;;;16.13;12.30;;;;;;;9.36;100.00;163012.88;5069375;28;20044;-62
2023/03/19 00:22:51;;;;;;;19.45;11.20;;;;;;;9.40;100.00;163022.31;5070465;28;20134;-63
2023/03/19 00:25:16;;;;;;;16.10;11.00;;;;;;;9.37;100.00;163014.22;5069565;28;20051;-62
2023/03/19 00:27:43;;;;;;;13.20;10.23;;;;;;;9.38;100.00;163016.91;5070379;28;20032;-62
2023/03/19 00:30:10;;;;;;;11.82;8.13;;;;;;;9.35;100.00;163008.81;5069145;28;20027;-62
2023/03/19 00:32:35;;;;;;;9.70;8.90;;;;;;;9.35;100.00;163008.81;5071314;28;20111;-62
2023/03/19 00:35:01;;;;;;;8.50;7.70;;;;;;;9.38;100.00;163015.59;5070506;28;20025;-62
2023/03/19 00:37:26;;;;;;;10.95;8.07;;;;;;;9.44;100.00;163031.75;5069004;28;20037;-62
2023/03/19 00:39:51;;;;;;;10.00;7.30;;;;;;;9.48;100.00;163043.91;5070564;28;20028;-62
2023/03/19 00:42:17;;;;;;;8.45;6.28;;;;;;;9.68;100.00;163095.16;5068428;28;20059;-62
2023/03/19 00:44:42;;;;;;;14.45;6.93;;;;;;;9.75;100.00;163112.72;5069225;28;20012;-62
2023/03/19 00:47:07;;;;;;;6.43;5.78;;;;;;;9.81;100.00;163130.22;5069331;28;20043;-61
2023/03/19 00:49:33;;;;;;;7.72;4.82;;;;;;;9.91;100.00;163154.50;5070329;28;20035;-61
2023/03/19 00:51:58;;;;;;;7.85;6.05;;;;;;;9.98;100.00;163173.41;5068432;28;20041;-61
2023/03/19 00:54:23;;;;;;;6.03;5.22;;;;;;;10.03;100.00;163185.56;5070598;28;20036;-60
2023/03/19 00:56:49;;;;;;;4.82;4.00;;;;;;;10.12;100.00;163211.19;5068589;28;20048;-60
2023/03/19 00:59:14;;;;;;;5.88;4.82;;;;;;;10.09;100.00;163201.75;5070346;28;20047;-60
2023/03/19 01:01:40;;;;;;;4.93;4.53;;;;;;;10.05;100.00;163192.28;5068983;28;20055;-61
2023/03/19 01:04:05;;;;;;;7.15;5.03;;;;;;;10.06;100.00;163195.00;5070760;28;20028;-61
2023/03/19 01:06:31;;;;;;;4.75;4.35;;;;;;;9.88;100.00;163147.78;5068040;28;20049;-61
2023/03/19 01:08:56;;;;;;;4.20;3.90;;;;;;;9.92;100.00;163157.22;5070051;28;20044;-61
2023/03/19 01:11:21;;;;;;;5.20;4.55;;;;;;;9.81;100.00;163130.22;5063832;28;20044;-61
2023/03/19 01:13:47;;;;;;;4.93;4.53;;;;;;;9.79;100.00;163124.81;5070054;28;20040;-61
2023/03/19 01:16:12;;;;;;;5.00;4.60;;;;;;;9.72;100.00;163105.91;5068963;28;20103;-61
2023/03/19 01:18:38;;;;;;;7.30;5.28;;;;;;;9.65;100.00;163088.41;5071926;28;20036;-61
2023/03/19 01:21:03;;;;;;;6.63;6.03;;;;;;;9.58;100.00;163068.16;5072474;28;20079;-60
2023/03/19 01:23:30;;;;;;;4.88;4.47;;;;;;;9.55;100.00;163060.09;5074546;28;20038;-61
2023/03/19 01:25:56;;;;;;;4.82;4.43;;;;;;;9.48;100.00;163043.91;5072431;28;20107;-61
2023/03/19 01:28:21;;;;;;;8.43;5.68;;;;;;;9.43;100.00;163030.38;5074353;28;20032;-62
2023/03/19 01:30:47;;;;;;;12.85;5.53;;;;;;;9.39;100.00;163019.63;5072830;28;20503;-61
2023/03/19 01:33:13;;;;;;;5.20;4.80;;;;;;;9.37;100.00;163014.22;5074457;28;20024;-61
2023/03/19 01:35:38;;;;;;;5.80;5.20;;;;;;;9.34;100.00;163006.16;5072067;28;20105;-62
2023/03/19 01:38:03;;;;;;;7.20;5.88;;;;;;;9.34;100.00;163006.16;5074316;28;20017;-62
2023/03/19 01:40:30;;;;;;;5.78;5.28;;;;;;;9.34;100.00;163006.16;5072367;28;20491;-62
2023/03/19 01:43:12;;;;;;;5.35;4.85;;;;;;;9.35;100.00;163008.81;5073425;28;20025;-62
2023/03/19 01:45:40;;;;;;;8.50;5.65;;;;;;;9.32;100.00;163002.06;5072750;28;20060;-63
2023/03/19 01:48:15;;;;;;;5.97;5.40;;;;;;;9.30;100.00;162995.34;5073805;28;20383;-63
2023/03/19 01:50:43;;;;;;;13.65;6.85;;;;;;;9.32;100.00;163000.75;5071835;28;20124;-63
2023/03/19 01:53:11;;;;;;;8.10;5.75;;;;;;;9.28;100.00;162989.91;5074185;28;20136;-63
2023/03/19 01:55:36;;;;;;;5.60;5.10;;;;;;;9.29;100.00;162992.63;5071884;28;20127;-63
2023/03/19 01:58:03;;;;;;;7.75;6.68;;;;;;;9.33;100.00;163003.44;5073034;28;20521;-63
2023/03/19 02:00:29;;;;;;;5.88;5.32;;;;;;;9.32;100.00;163000.75;5071773;28;20036;-62
2023/03/19 02:02:59;;;;;;;9.13;5.80;;;;;;;9.29;100.00;162994.00;5073520;28;20020;-62
2023/03/19 02:05:26;;;;;;;9.57;5.97;;;;;;;9.29;100.00;162994.00;5072181;28;20041;-62
2023/03/19 02:07:55;;;;;;;10.80;6.55;;;;;;;9.31;100.00;162998.03;5072794;28;20031;-62
2023/03/19 02:10:21;;;;;;;7.07;6.07;;;;;;;9.33;100.00;163003.44;5071918;28;20045;-62
2023/03/19 02:12:47;;;;;;;6.20;5.60;;;;;;;9.33;100.00;163004.78;5073237;28;20032;-62
2023/03/19 02:15:12;;;;;;;7.72;5.10;;;;;;;9.38;100.00;163016.91;5071942;28;20094;-62
2023/03/19 02:17:40;;;;;;;9.63;5.82;;;;;;;9.39;100.00;163019.63;5073046;28;20167;-62
2023/03/19 02:20:11;;;;;;;7.43;6.47;;;;;;;9.38;100.00;163015.59;5071890;28;20052;-62
2023/03/19 02:22:45;;;;;;;5.85;5.30;;;;;;;9.38;100.00;163015.59;5073347;28;20028;-62
2023/03/19 02:25:19;;;;;;;5.03;4.53;;;;;;;9.38;100.00;163016.91;5071600;28;20089;-62
2023/03/19 02:27:45;;;;;;;7.47;4.75;;;;;;;9.38;100.00;163016.91;5072658;28;20025;-62
2023/03/19 02:30:26;;;;;;;5.13;4.65;;;;;;;9.35;100.00;163008.81;5071780;28;20048;-61
2023/03/19 02:32:52;;;;;;;7.68;5.18;;;;;;;9.33;100.00;163003.44;5072757;28;20044;-61
2023/03/19 02:35:17;;;;;;;6.30;4.80;;;;;;;9.23;100.00;162976.44;5071511;28;20032;-61
2023/03/19 02:37:43;;;;;;;14.95;5.32;;;;;;;9.30;100.00;162995.34;5072974;28;20027;-61
2023/03/19 02:40:16;;;;;;;7.85;6.10;;;;;;;9.30;100.00;162995.34;5071253;28;20028;-61
2023/03/19 02:42:41;;;;;;;6.13;5.35;;;;;;;9.30;100.00;162995.34;5072442;28;20036;-61
2023/03/19 02:45:07;;;;;;;9.20;5.50;;;;;;;9.29;100.00;162992.63;5071631;28;20584;-61
2023/03/19 02:47:33;;;;;;;5.70;5.20;;;;;;;9.29;100.00;162992.63;5072794;28;20491;-61
2023/03/19 02:49:58;;;;;;;5.75;5.05;;;;;;;9.31;100.00;162998.03;5072147;28;20028;-61
2023/03/19 02:52:24;;;;;;;6.47;5.95;;;;;;;9.32;100.00;163002.06;5071474;28;20519;-61
2023/03/19 02:54:49;;;;;;;6.28;5.68;;;;;;;9.36;100.00;163011.50;5072281;28;20020;-61
2023/03/19 02:57:14;;;;;;;8.27;5.63;;;;;;;9.37;100.00;163014.22;5070986;28;20041;-61
2023/03/19 02:59:40;;;;;;;5.70;5.18;;;;;;;9.35;100.00;163010.19;5072218;28;20491;-61
2023/03/19 03:02:05;;;;;;;9.35;4.88;;;;;;;9.38;100.00;163016.91;5070845;28;20056;-61
2023/03/19 03:04:32;;;;;;;9.90;6.78;;;;;;;9.37;100.00;163014.22;5071925;28;20135;-61
2023/03/19 03:06:58;;;;;;;6.68;6.03;;;;;;;9.41;100.00;163025.03;5070752;28;20079;-61
2023/03/19 03:09:23;;;;;;;7.97;6.43;;;;;;;9.45;100.00;163034.47;5072565;28;20028;-60
2023/03/19 03:11:49;;;;;;;6.43;5.90;;;;;;;9.44;100.00;163033.09;5070382;28;20124;-60
2023/03/19 03:14:14;;;;;;;12.80;7.85;;;;;;;9.49;100.00;163045.25;5072423;28;20028;-60
2023/03/19 03:16:39;;;;;;;9.82;6.65;;;;;;;9.51;100.00;163051.97;5070530;28;20130;-62
2023/03/19 03:19:05;;;;;;;7.25;6.55;;;;;;;9.48;100.00;163043.91;5071745;28;20141;-62
2023/03/19 03:21:30;;;;;;;8.80;6.35;;;;;;;9.43;100.00;163030.38;5070443;28;20041;-62
2023/03/19 03:23:56;;;;;;;10.80;7.10;;;;;;;9.47;100.00;163041.22;5071776;28;20036;-62
2023/03/19 03:26:21;;;;;;;8.88;7.57;;;;;;;9.47;100.00;163039.81;5070720;28;20388;-62
2023/03/19 03:28:47;;;;;;;10.00;7.60;;;;;;;9.45;100.00;163035.81;5071956;28;20032;-62
2023/03/19 03:31:13;;;;;;;7.80;7.10;;;;;;;9.44;100.00;163031.75;5070293;28;20522;-62
2023/03/19 03:33:39;;;;;;;8.45;7.72;;;;;;;9.45;100.00;163035.81;5072119;28;20028;-62
2023/03/19 03:36:04;;;;;;;7.35;6.65;;;;;;;9.43;100.00;163029.06;5070313;28;20097;-62
2023/03/19 03:38:31;;;;;;;8.02;7.32;;;;;;;9.41;100.00;163025.03;5071765;28;20024;-61
2023/03/19 03:40:57;;;;;;;9.43;7.25;;;;;;;9.39;100.00;163019.63;5069464;28;20052;-61
2023/03/19 03:43:24;;;;;;;8.43;7.53;;;;;;;9.35;100.00;163008.81;5071634;28;20021;-61
2023/03/19 03:45:49;;;;;;;9.23;7.88;;;;;;;9.30;100.00;162995.34;5070152;28;20112;-61
2023/03/19 03:48:15;;;;;;;8.00;7.10;;;;;;;9.29;100.00;162992.63;5071781;28;20031;-61
2023/03/19 03:50:41;;;;;;;10.18;7.95;;;;;;;9.26;100.00;162985.91;5069376;28;20094;-61
2023/03/19 03:53:07;;;;;;;10.25;9.32;;;;;;;9.24;100.00;162979.16;5071532;28;20107;-61
2023/03/19 03:55:33;;;;;;;9.95;8.95;;;;;;;9.24;100.00;162979.16;5070378;28;20071;-61
2023/03/19 03:57:58;;;;;;;8.48;7.72;;;;;;;9.25;100.00;162983.19;5070809;28;20028;-61
2023/03/19 04:00:24;;;;;;;11.95;10.60;;;;;;;9.28;100.00;162989.91;5070289;28;20553;-61
2023/03/19 04:02:50;;;;;;;12.23;8.52;;;;;;;9.21;100.00;162972.41;5071199;28;20039;-61
2023/03/19 04:05:16;;;;;;;13.93;9.57;;;;;;;9.23;100.00;162976.44;5069890;28;20043;-61
2023/03/19 04:07:42;;;;;;;10.05;8.55;;;;;;;9.20;100.00;162969.72;5071294;28;20054;-61
2023/03/19 04:10:09;;;;;;;11.10;9.23;;;;;;;9.21;100.00;162972.41;5069916;28;20110;-60
2023/03/19 04:12:36;;;;;;;9.27;8.38;;;;;;;9.23;100.00;162976.44;5070854;28;20629;-60
2023/03/19 04:15:05;;;;;;;9.40;8.63;;;;;;;9.16;100.00;162958.91;5069797;28;20090;-61
2023/03/19 04:17:30;;;;;;;;;;;;;;;9.24;100.00;162979.16;5071555;28;20162;-60
2023/03/19 04:19:56;;;;;;;10.68;9.60;;;;;;;9.21;100.00;162973.75;5069066;28;19948;-61
2023/03/19 04:22:21;;;;;;;13.13;10.98;;;;;;;9.23;100.00;162976.44;5071135;28;20093;-61
2023/03/19 04:24:46;;;;;;;12.13;10.93;;;;;;;9.24;100.00;162980.47;5069467;28;20051;-60
2023/03/19 04:27:12;;;;;;;12.13;10.93;;;;;;;9.21;100.00;162973.75;5070804;28;20020;-61
2023/03/19 04:29:38;;;;;;;12.65;10.75;;;;;;;9.25;100.00;162981.84;5069525;28;20061;-61
2023/03/19 04:32:03;;;;;;;12.27;10.98;;;;;;;9.26;100.00;162984.56;5070748;28;20024;-61
2023/03/19 04:34:29;;;;;;;12.00;10.77;;;;;;;9.21;100.00;162973.75;5069355;28;20479;-62
2023/03/19 04:36:55;;;;;;;12.05;10.98;;;;;;;9.23;100.00;162976.44;5070781;28;20090;-62
2023/03/19 04:39:20;;;;;;;22.65;12.70;;;;;;;9.26;100.00;162985.91;5069802;28;20122;-62
2023/03/19 04:41:46;;;;;;;13.02;11.73;;;;;;;9.26;100.00;162984.56;5070336;28;20495;-61
2023/03/19 04:44:11;;;;;;;13.27;11.98;;;;;;;9.25;100.00;162981.84;5071086;28;20037;-61
2023/03/19 04:46:37;;;;;;;13.73;11.38;;;;;;;9.26;100.00;162985.91;5069331;28;20037;-61
2023/03/19 04:49:02;;;;;;;13.07;11.82;;;;;;;9.27;100.00;162987.28;5070223;28;20039;-61
2023/03/19 04:51:27;;;;;;;14.10;12.48;;;;;;;9.29;100.00;162992.63;5069490;28;20047;-61
2023/03/19 04:53:53;;;;;;;13.45;11.95;;;;;;;9.32;100.00;163000.75;5069360;28;20491;-61
2023/03/19 04:56:19;;;;;;;14.88;11.73;;;;;;;9.32;100.00;163000.75;5069195;28;20045;-61
2023/03/19 04:58:45;;;;;;;14.52;12.88;;;;;;;9.31;100.00;162998.03;5070530;28;20487;-60
2023/03/19 05:01:10;;;;;;;12.60;11.38;;;;;;;9.28;100.00;162991.31;5069391;28;20040;-60
2023/03/19 05:03:36;;;;;;;14.35;11.88;;;;;;;9.31;100.00;162998.03;5070292;28;20032;-61
2023/03/19 05:06:01;;;;;;;13.68;11.50;;;;;;;9.27;100.00;162988.59;5068944;28;20047;-64
2023/03/19 05:08:27;;;;;;;11.48;9.95;;;;;;;9.30;100.00;162995.34;5070828;28;20108;-63
2023/03/19 05:10:52;;;;;;;13.70;11.00;;;;;;;9.30;100.00;162995.34;5068502;28;20402;-64
2023/03/19 05:13:18;;;;;;;15.82;12.35;;;;;;;9.28;100.00;162989.91;5070715;28;20028;-64
2023/03/19 05:15:44;;;;;;;16.65;12.80;;;;;;;9.25;100.00;162983.19;5068780;28;20156;-63
2023/03/19 05:18:11;;;;;;;13.35;12.13;;;;;;;9.24;100.00;162979.16;5070112;28;20048;-63
2023/03/19 05:20:36;;;;;;;17.13;12.93;;;;;;;9.19;100.00;162968.38;5069067;28;20047;-65
2023/03/19 05:23:02;;;;;;;20.92;14.52;;;;;;;9.18;100.00;162965.69;5070219;28;20029;-61
2023/03/19 05:25:28;;;;;;;14.23;12.82;;;;;;;9.17;100.00;162962.97;5068721;28;20048;-61
2023/03/19 05:27:53;;;;;;;17.52;13.73;;;;;;;9.20;100.00;162969.72;5070432;28;20150;-61
2023/03/19 05:30:19;;;;;;;14.40;12.65;;;;;;;9.15;100.00;162957.56;5069183;28;20051;-61
2023/03/19 05:32:45;;;;;;;13.80;12.18;;;;;;;9.13;100.00;162952.16;5070013;28;20025;-63
2023/03/19 05:35:12;;;;;;;14.20;12.82;;;;;;;9.12;100.00;162949.47;5069134;28;20438;-61
2023/03/19 05:37:37;;;;;;;16.20;13.68;;;;;;;9.09;100.00;162940.03;5070026;28;20381;-62
2023/03/19 05:40:04;;;;;;;16.80;11.85;;;;;;;9.02;100.00;162922.53;5067755;28;20036;-61
2023/03/19 05:42:29;;;;;;;13.63;12.23;;;;;;;8.98;100.00;162911.72;5070106;28;20024;-62
2023/03/19 05:44:54;;;;;;;13.05;11.80;;;;;;;8.96;100.00;162907.69;5067740;28;20079;-62
2023/03/19 05:47:20;;;;;;;15.23;13.63;;;;;;;8.93;100.00;162899.63;5067782;28;20024;-61
2023/03/19 05:49:46;;;;;;;14.27;12.82;;;;;;;8.90;100.00;162891.50;5066642;28;20037;-61
2023/03/19 05:52:11;;;;;;;14.32;12.85;;;;;;;8.88;100.00;162887.47;5070197;28;20028;-61
2023/03/19 05:54:36;;;;;;;14.15;12.02;;;;;;;8.87;100.00;162884.78;5063267;28;20189;-61
2023/03/19 05:57:02;;;;;;;16.17;13.10;;;;;;;8.91;100.00;162894.22;5068203;28;20071;-61
2023/03/19 05:59:27;;;;;;;23.33;14.68;;;;;;;8.95;100.00;162903.66;5067635;28;20040;-61
2023/03/19 06:01:53;;;;;;;17.55;15.00;;;;;;;9.00;100.00;162918.50;5069209;28;20017;-61
2023/03/19 06:04:18;;;;;;;15.13;13.63;;;;;;;9.01;100.00;162919.81;5067392;28;20436;-60
2023/03/19 06:06:43;;;;;;;14.02;12.73;;;;;;;9.04;100.00;162929.25;5071802;28;20024;-61
2023/03/19 06:09:09;;;;;;;16.13;13.85;;;;;;;9.07;100.00;162934.66;5073088;28;20035;-61
2023/03/19 06:11:34;;;;;;;15.20;13.63;;;;;;;9.10;100.00;162944.09;5070095;28;20043;-61
2023/03/19 06:13:59;;;;;;;17.10;14.35;;;;;;;9.12;100.00;162949.47;5072698;28;20491;-61
2023/03/19 06:16:25;;;;;;;15.05;13.38;;;;;;;9.16;100.00;162960.28;5071609;28;20474;-61
2023/03/19 06:18:51;;;;;;;18.20;14.45;;;;;;;9.18;100.00;162964.31;5054572;28;20698;-61
2023/03/19 06:21:16;;;;;;;16.48;14.80;;;;;;;9.21;100.00;162973.75;5051686;28;20041;-61
2023/03/19 06:23:42;;;;;;;18.73;16.83;;;;;;;9.22;100.00;162975.13;5067895;28;20020;-61
2023/03/19 06:26:08;;;;;;;18.58;16.58;;;;;;;9.25;100.00;162981.84;5070454;28;20105;-61
2023/03/19 06:28:33;;;;;;;17.50;15.75;;;;;;;9.25;100.00;162981.84;5073103;28;20020;-61
2023/03/19 06:30:58;;;;;;;18.25;16.33;;;;;;;9.24;100.00;162979.16;5070494;28;20457;-61
2023/03/19 06:33:26;;;;;;;18.38;16.20;;;;;;;9.31;100.00;162998.03;5070940;28;20441;-61
2023/03/19 06:35:52;;;;;;;18.00;16.17;;;;;;;9.30;100.00;162995.34;5071148;28;20106;-61
2023/03/19 06:38:17;;;;;;;18.48;15.70;;;;;;;9.32;100.00;163000.75;5072686;28;20036;-61
2023/03/19 06:40:42;;;;;;;16.70;14.75;;;;;;;9.30;100.00;162995.34;5069586;28;20040;-61
2023/03/19 06:43:08;;;;;;;16.02;14.32;;;;;;;9.24;100.00;162979.16;5072346;28;20039;-61
2023/03/19 06:45:33;;;;;;;15.68;14.10;;;;;;;9.17;100.00;162962.97;5071128;28;20036;-61
2023/03/19 06:47:58;;;;;;;14.73;12.23;;;;;;;9.11;100.00;162945.44;5070759;28;20479;-61
2023/03/19 06:50:25;;;;;;;16.13;14.63;;;;;;;9.08;100.00;162938.69;5071220;28;20041;-61
2023/03/19 06:52:50;;;;;;;16.38;12.88;;;;;;;9.04;100.00;162929.25;5071657;28;20631;-61
2023/03/19 06:55:16;;;;;;;15.85;14.20;;;;;;;9.12;100.00;162948.13;5069338;28;20040;-61
2023/03/19 06:57:42;;;;;;;16.77;14.82;;;;;;;9.25;100.00;162983.19;5072108;28;20036;-61
2023/03/19 07:00:10;;;;;;;14.77;13.27;;;;;;;9.42;100.00;163027.69;5070670;28;20051;-61
2023/03/19 07:02:35;;;;;;;14.93;13.48;;;;;;;9.56;100.00;163062.78;5071149;28;20146;-61
2023/03/19 07:05:01;;;;;;;14.68;13.18;;;;;;;9.65;100.00;163087.03;5069577;28;20500;-61
2023/03/19 07:07:26;;;;;;;16.63;12.43;;;;;;;9.67;100.00;163092.44;5071941;28;20032;-61
2023/03/19 07:09:51;;;;;;;16.27;13.77;;;;;;;9.67;100.00;163093.81;5069127;28;20048;-61
2023/03/19 07:12:17;;;;;;;15.98;13.77;;;;;;;9.65;100.00;163087.03;5071520;28;20043;-61
2023/03/19 07:14:42;;;;;;;14.50;12.32;;;;;;;9.66;100.00;163091.13;5070313;28;20059;-61
2023/03/19 07:17:08;;;;;;;16.13;13.52;;;;;;;9.69;100.00;163097.84;5069179;28;20467;-61
2023/03/19 07:19:33;;;;;;;13.43;12.05;;;;;;;9.68;100.00;163095.16;5069179;28;20040;-61
2023/03/19 07:21:58;;;;;;;13.20;11.88;;;;;;;9.68;100.00;163095.16;5071081;28;20364;-61
2023/03/19 07:24:24;;;;;;;17.73;14.90;;;;;;;9.66;100.00;163089.75;5068632;28;20025;-61
2023/03/19 07:26:49;;;;;;;16.58;14.63;;;;;;;9.71;100.00;163103.25;5071369;28;20021;-61
2023/03/19 07:29:16;;;;;;;22.73;15.48;;;;;;;9.82;100.00;163131.59;5071103;28;20070;-61
2023/03/19 07:31:41;;;;;;;15.98;13.10;;;;;;;10.00;100.00;163178.81;5068297;28;20121;-60
2023/03/19 07:34:07;;;;;;;16.05;13.05;;;;;;;10.11;100.00;163207.16;5071839;28;20483;-60
2023/03/19 07:36:32;;;;;;;16.75;13.23;;;;;;;10.28;100.00;163251.66;5069571;28;20036;-60
2023/03/19 07:38:57;;;;;;;15.80;14.05;;;;;;;10.40;100.00;163282.78;5069753;28;20556;-60
2023/03/19 07:41:23;;;;;;;13.23;11.93;;;;;;;10.50;100.00;163308.41;5069619;28;20106;-60
2023/03/19 07:43:48;;;;;;;12.35;11.15;;;;;;;10.55;100.00;163323.25;5070564;28;20032;-60
2023/03/19 07:46:14;;;;;;;13.15;11.15;;;;;;;10.55;100.00;163321.88;5068953;28;20044;-60
2023/03/19 07:48:40;;;;;;;13.18;10.38;;;;;;;10.52;100.00;163315.13;5063441;28;20028;-60
2023/03/19 07:51:06;;;;;;;12.88;9.48;;;;;;;10.39;100.00;163280.06;5060639;28;20044;-60
2023/03/19 07:53:31;;;;;;;12.15;10.20;;;;;;;10.36;100.00;163273.25;5070697;28;20020;-60
2023/03/19 07:55:56;;;;;;;12.70;10.52;;;;;;;10.38;100.00;163278.72;5067586;28;20047;-60
2023/03/19 07:58:22;;;;;;;11.70;10.43;;;;;;;10.47;100.00;163303.00;5070596;28;20025;-60
2023/03/19 08:00:47;;;;;;;12.23;10.95;;;;;;;10.48;100.00;163304.38;5068867;28;20051;-60
2023/03/19 08:03:13;;;;;;;13.73;9.52;;;;;;;10.61;100.00;163338.13;5069522;28;20502;-60
2023/03/19 08:05:38;;;;;;;14.18;10.38;;;;;;;10.72;100.00;163367.78;5069087;28;20037;-60
2023/03/19 08:08:04;;;;;;;13.45;12.15;;;;;;;10.81;100.00;163390.72;5070633;28;20697;-60
2023/03/19 08:10:29;;;;;;;16.38;10.55;;;;;;;10.98;100.00;163435.31;5068206;28;20043;-60
2023/03/19 08:12:55;;;;;;;12.60;9.80;;;;;;;11.02;100.00;163446.09;5070472;28;20438;-60
2023/03/19 08:15:21;;;;;;;9.13;8.30;;;;;;;11.15;100.00;163478.47;5067560;28;20055;-60
2023/03/19 08:17:46;;;;;;;10.52;8.90;;;;;;;11.34;100.00;163529.84;5068518;28;20020;-60
2023/03/19 08:20:15;;;;;;;11.35;10.15;;;;;;;11.57;100.00;163589.25;5067835;28;20059;-60
2023/03/19 08:22:41;;;;;;;10.95;9.30;;;;;;;12.17;100.00;163747.34;5069311;28;20026;-60
2023/03/19 08:25:08;;;;;;;10.02;9.07;;;;;;;12.46;100.00;163821.66;5066802;28;20127;-60
2023/03/19 08:27:36;;;;;;;9.85;8.75;;;;;;;12.96;100.00;163954.13;5069131;28;20063;-60
2023/03/19 08:30:04;;;;;;;9.90;8.98;;;;;;;13.01;100.00;163967.63;5067567;28;20040;-60
2023/03/19 08:32:29;;;;;;;8.20;6.72;;;;;;;13.06;100.00;163978.47;5067763;28;20038;-60
2023/03/19 08:34:55;;;;;;;8.35;7.50;;;;;;;12.61;100.00;163862.22;5067402;28;20052;-60
2023/03/19 08:37:20;;;;;;;11.65;7.45;;;;;;;12.56;100.00;163848.66;5069376;28;20024;-60
2023/03/19 08:39:46;;;;;;;9.25;8.27;;;;;;;12.36;100.00;163797.34;5067506;28;20131;-60
2023/03/19 08:42:11;;;;;;;8.80;7.05;;;;;;;12.43;100.00;163813.53;5070030;28;20028;-60
2023/03/19 08:44:37;;;;;;;11.43;6.88;;;;;;;12.20;100.00;163754.09;5068721;28;20040;-60
2023/03/19 08:47:02;;;;;;;7.88;6.13;;;;;;;12.28;100.00;163774.38;5068264;28;20020;-60
2023/03/19 08:49:28;;;;;;;9.10;6.60;;;;;;;12.42;100.00;163810.84;5068974;28;20467;-60
2023/03/19 08:51:53;;;;;;;8.40;6.90;;;;;;;12.17;100.00;163746.00;5069718;28;20039;-60
2023/03/19 08:54:18;;;;;;;6.82;6.15;;;;;;;12.04;100.00;163713.56;5066386;28;20552;-59
2023/03/19 08:56:44;;;;;;;10.05;7.18;;;;;;;11.86;100.00;163666.22;5069351;28;20016;-60
2023/03/19 08:59:09;;;;;;;9.18;8.27;;;;;;;11.78;100.00;163643.28;5070514;28;20024;-60
2023/03/19 09:01:36;;;;;;;10.02;7.35;;;;;;;11.64;100.00;163608.16;5063219;28;20527;-60
2023/03/19 09:04:01;;;;;;;8.82;7.97;;;;;;;11.69;100.00;163620.31;5064345;28;20020;-61
2023/03/19 09:06:26;;;;;;;8.40;7.68;;;;;;;11.60;100.00;163597.31;5067627;28;20047;-60
2023/03/19 09:08:52;;;;;;;8.25;7.15;;;;;;;11.72;100.00;163629.78;5064572;28;20024;-60
2023/03/19 09:11:17;;;;;;;9.23;8.07;;;;;;;11.74;100.00;163635.16;5068259;28;20047;-60
2023/03/19 09:13:43;;;;;;;14.05;8.23;;;;;;;11.98;100.00;163696.03;5069900;28;20095;-60
2023/03/19 09:16:08;;;;;;;8.98;7.93;;;;;;;12.33;100.00;163789.22;5066140;28;20047;-61
2023/03/19 09:18:34;;;;;;;11.50;7.35;;;;;;;12.58;100.00;163852.75;5069804;28;20063;-61
2023/03/19 09:21:00;;;;;;;6.82;6.32;;;;;;;12.53;100.00;163840.59;5066023;28;20047;-60
2023/03/19 09:23:26;;;;;;;8.10;6.38;;;;;;;12.74;100.00;163894.63;5066943;28;20024;-60
2023/03/19 09:25:51;;;;;;;8.68;6.47;;;;;;;12.94;100.00;163948.69;5067641;28;20040;-61
2023/03/19 09:28:17;;;;;;;7.72;6.93;;;;;;;12.73;100.00;163891.94;5067947;28;20052;-61
2023/03/19 09:30:45;;;;;;;8.60;6.75;;;;;;;12.86;100.00;163927.06;5066004;28;20060;-61
2023/03/19 09:33:10;;;;;;;6.63;6.03;;;;;;;12.82;100.00;163916.28;5069093;28;20446;-61
2023/03/19 09:35:38;;;;;;;5.22;4.78;;;;;;;13.10;100.00;163989.25;5066265;28;20044;-61
2023/03/19 09:38:04;;;;;;;6.30;5.40;;;;;;;13.30;100.00;164043.31;5068559;28;20028;-61
2023/03/19 09:40:35;;;;;;;7.00;6.18;;;;;;;12.94;100.00;163948.69;5071727;28;20067;-61
2023/03/19 09:43:12;;;;;;;5.45;4.90;;;;;;;12.93;100.00;163945.97;5072651;28;20028;-61
2023/03/19 09:45:38;;;;;;;6.53;5.80;;;;;;;13.58;100.00;164115.03;5069489;28;20052;-61
2023/03/19 09:48:13;;;;;;;7.60;5.20;;;;;;;14.07;100.00;164243.53;5069072;28;20564;-61
2023/03/19 09:50:39;;;;;;;6.20;5.63;;;;;;;13.81;100.00;164175.94;5070442;28;20476;-61
2023/03/19 09:53:16;;;;;;;7.07;5.68;;;;;;;14.01;100.00;164227.31;5070520;28;20028;-61
2023/03/19 09:55:45;;;;;;;7.00;6.38;;;;;;;14.29;100.00;164301.72;5071533;28;20060;-61
2023/03/19 09:58:19;;;;;;;5.55;5.05;;;;;;;14.14;100.00;164262.47;5073115;28;20024;-61
2023/03/19 10:00:49;;;;;;;7.25;5.63;;;;;;;14.26;100.00;164293.59;5058620;28;20061;-61
2023/03/19 10:03:40;;;;;;;8.32;6.43;;;;;;;15.15;100.00;164526.38;5052518;28;20507;-61
2023/03/19 10:06:28;;;;;;;6.32;5.72;;;;;;;15.93;100.00;164730.84;5051266;28;20079;-61
2023/03/19 10:09:11;;;;;;;6.07;5.47;;;;;;;15.94;100.00;164733.56;5041438;28;20475;-61
2023/03/19 10:11:49;;;;;;;8.40;5.00;;;;;;;15.57;100.00;164636.03;5070642;28;20562;-61
2023/03/19 10:15:03;;;;;;;6.17;5.23;;;;;;;15.93;100.00;164730.84;5073086;28;20032;-61
2023/03/19 10:17:33;;;;;;;5.38;4.88;;;;;;;16.36;100.00;164844.59;5062330;28;20448;-61
2023/03/19 10:20:09;;;;;;;4.80;4.38;;;;;;;16.73;100.00;164942.13;5067801;28;20566;-61
2023/03/19 10:22:43;;;;;;;4.75;4.30;;;;;;;16.87;100.00;164977.34;5070075;28;20524;-59
2023/03/19 10:25:15;;;;;;;8.00;6.32;;;;;;;16.23;100.00;164810.78;5061206;28;20147;-58
2023/03/19 10:27:41;;;;;;;4.57;4.07;;;;;;;15.11;100.00;164516.91;5070911;28;20069;-59
2023/03/19 10:30:17;;;;;;;6.18;4.78;;;;;;;14.38;100.00;164324.72;5064036;28;20098;-59
2023/03/19 10:33:01;;;;;;;4.50;3.92;;;;;;;14.08;100.00;164246.25;5071868;28;20024;-58
2023/03/19 10:35:49;;;;;;;7.65;5.47;;;;;;;13.48;100.00;164089.34;5071168;28;20040;-58
2023/03/19 10:38:19;;;;;;;7.88;5.85;;;;;;;13.18;100.00;164010.88;5071864;28;20021;-59
2023/03/19 10:41:02;;;;;;;4.38;3.95;;;;;;;13.38;100.00;164062.25;5051042;28;20531;-59
2023/03/19 10:43:29;;;;;;;3.55;3.35;;;;;;;12.99;100.00;163962.19;5060012;28;20776;-59
2023/03/19 10:45:56;;;;;;;6.97;3.60;;;;;;;13.15;100.00;164004.13;5070759;28;20040;-58
2023/03/19 10:48:24;;;;;;;4.63;3.90;;;;;;;13.10;100.00;163990.63;5071346;28;20024;-58
2023/03/19 10:50:52;;;;;;;;;;;;;;;13.14;100.00;164000.09;5069809;28;20110;-58
2023/03/19 10:53:18;;;;;;;4.65;4.25;;;;;;;13.53;100.00;164102.88;5068580;28;19963;-58
2023/03/19 10:55:46;;;;;;;6.00;3.83;;;;;;;13.96;100.00;164216.47;5066550;28;20513;-58
2023/03/19 10:58:20;;;;;;;5.43;3.90;;;;;;;14.99;100.00;164484.44;5071987;28;20070;-58
2023/03/19 11:00:48;;;;;;;5.00;3.42;;;;;;;15.41;100.00;164595.41;5070250;28;20625;-58
2023/03/19 11:03:34;;;;;;;4.38;3.97;;;;;;;15.99;100.00;164747.09;5070841;28;20054;-58
2023/03/19 11:06:17;;;;;;;12.82;5.22;;;;;;;16.16;100.00;164793.16;5069422;28;20071;-58
2023/03/19 11:08:49;;;;;;;7.57;4.13;;;;;;;15.64;100.00;164654.97;5069898;28;20024;-58
2023/03/19 11:11:31;;;;;;;4.05;3.70;;;;;;;16.34;100.00;164839.22;5069767;28;20093;-58
2023/03/19 11:13:56;;;;;;;4.22;3.83;;;;;;;17.17;100.00;165055.97;5071554;28;20043;-58
2023/03/19 11:16:22;;;;;;;3.47;3.25;;;;;;;17.63;100.00;165177.97;5070257;28;20487;-59